Time;durP1;ratioP1;P1;durP2;ratioP2;P2;SDS_P1;SDS_P2;PMS_P1;PMS_P2;Temp;Humidity;BMP_temperature;BMP_pressure;BME280_temperature;BME280_humidity;BME280_pressure;Samples;Min_cycle;Max_cycle;Signal;HPM_P1;HPM_P2
2021/05/31 00:00:04;;;;;;;8.00;5.13;;;9.80;99.90;;;;;;6278734;28;20028;-84
2021/05/31 00:03:05;;;;;;;5.78;4.97;;;;;;;;;;6259048;28;20498;-83
2021/05/31 00:06:06;;;;;;;6.15;4.50;;;;;;;;;;6293825;28;20020;-80
2021/05/31 00:09:08;;;;;;;8.27;4.80;;;;;;;;;;6274528;28;20024;-80
2021/05/31 00:12:10;;;;;;;6.88;4.82;;;9.50;99.90;;;;;;6316883;28;20035;-81
2021/05/31 00:15:11;;;;;;;;;;;9.80;99.90;;;;;;6278196;28;20429;-81
2021/05/31 00:18:15;;;;;;;7.68;4.65;;;9.60;99.90;;;;;;6316707;28;19915;-80
2021/05/31 00:21:17;;;;;;;7.22;4.80;;;9.70;99.90;;;;;;6299454;28;20497;-80
2021/05/31 00:24:18;;;;;;;5.40;4.53;;;9.60;99.90;;;;;;6288025;28;20035;-82
2021/05/31 00:27:19;;;;;;;6.25;4.30;;;9.50;99.90;;;;;;6278144;28;20033;-81
2021/05/31 00:30:23;;;;;;;6.07;4.50;;;9.50;98.80;;;;;;6274878;28;20431;-80
2021/05/31 00:33:24;;;;;;;5.47;4.25;;;9.50;99.50;;;;;;6258993;28;20386;-80
2021/05/31 00:36:24;;;;;;;7.93;4.57;;;9.10;99.90;;;;;;6291275;28;20028;-81
2021/05/31 00:39:25;;;;;;;7.47;4.68;;;9.20;99.90;;;;;;6274366;28;20083;-80
2021/05/31 00:42:25;;;;;;;5.30;4.40;;;9.60;99.90;;;;;;6257837;28;20040;-80
2021/05/31 00:45:27;;;;;;;6.18;4.70;;;9.20;99.90;;;;;;6296729;28;20035;-80
2021/05/31 00:48:29;;;;;;;7.60;4.32;;;;;;;;;;6297910;28;20028;-80
2021/05/31 00:51:30;;;;;;;7.95;4.63;;;;;;;;;;6298410;28;20071;-80
2021/05/31 00:54:30;;;;;;;5.25;4.28;;;9.40;99.90;;;;;;6315763;28;20483;-80
2021/05/31 00:57:31;;;;;;;8.32;4.65;;;9.30;99.90;;;;;;6288360;28;20032;-80
2021/05/31 01:00:31;;;;;;;6.47;4.75;;;9.30;99.90;;;;;;6262019;28;20150;-80
2021/05/31 01:03:32;;;;;;;5.90;4.57;;;9.40;99.90;;;;;;6297803;28;20032;-80
2021/05/31 01:06:35;;;;;;;5.97;4.30;;;9.20;99.90;;;;;;6274567;28;20033;-80
2021/05/31 01:09:56;;;;;;;6.75;4.70;;;8.90;99.90;;;;;;6277612;28;20024;-80
2021/05/31 01:13:00;;;;;;;7.75;4.47;;;9.10;99.90;;;;;;6293689;28;20547;-80
2021/05/31 01:16:17;;;;;;;5.15;4.30;;;9.40;99.90;;;;;;6316838;28;20032;-80
2021/05/31 01:19:34;;;;;;;5.82;4.43;;;9.00;99.90;;;;;;6293218;28;20028;-81
2021/05/31 01:22:35;;;;;;;5.88;4.22;;;9.20;99.90;;;;;;6298761;28;20039;-79
2021/05/31 01:25:58;;;;;;;7.57;4.47;;;9.00;99.90;;;;;;6298596;28;20020;-80
2021/05/31 01:29:01;;;;;;;7.43;4.55;;;9.20;99.90;;;;;;6299356;28;20028;-80
2021/05/31 01:32:02;;;;;;;6.78;4.68;;;9.10;98.40;;;;;;6314902;28;20850;-81
2021/05/31 01:35:06;;;;;;;5.00;4.43;;;8.90;99.90;;;;;;6282574;28;20031;-80
2021/05/31 01:38:06;;;;;;;9.07;4.38;;;9.10;99.90;;;;;;6282327;28;20036;-79
2021/05/31 01:41:07;;;;;;;6.55;4.22;;;8.70;99.90;;;;;;6278245;28;20049;-80
2021/05/31 01:44:08;;;;;;;7.00;4.50;;;8.70;99.90;;;;;;6278470;28;20029;-79
2021/05/31 01:47:09;;;;;;;6.68;5.00;;;8.80;99.90;;;;;;6278454;28;20063;-80
2021/05/31 01:50:11;;;;;;;6.10;4.55;;;8.70;99.90;;;;;;6278813;28;20032;-79
2021/05/31 01:53:12;;;;;;;6.03;4.07;;;8.70;99.90;;;;;;6278789;28;20020;-79
2021/05/31 01:56:13;;;;;;;8.93;4.40;;;8.70;99.90;;;;;;6278475;28;20425;-80
2021/05/31 01:59:15;;;;;;;5.72;4.30;;;8.50;99.90;;;;;;6278063;28;20028;-80
2021/05/31 02:02:16;;;;;;;8.02;4.32;;;;;;;;;;6278071;28;20429;-80
2021/05/31 02:05:17;;;;;;;5.95;4.57;;;8.50;98.30;;;;;;6294658;28;20033;-79
2021/05/31 02:08:17;;;;;;;5.72;4.25;;;8.70;99.90;;;;;;6298871;28;20115;-80
2021/05/31 02:11:44;;;;;;;4.88;4.18;;;7.30;95.10;;;;;;6302302;28;20363;-79
2021/05/31 02:15:05;;;;;;;6.53;4.47;;;8.60;99.90;;;;;;6302516;28;20618;-83
2021/05/31 02:18:17;;;;;;;5.40;4.35;;;8.80;99.90;;;;;;6286440;28;20504;-79
2021/05/31 02:21:18;;;;;;;7.88;4.90;;;8.50;99.90;;;;;;6277562;28;20123;-78
2021/05/31 02:24:19;;;;;;;4.28;3.88;;;8.40;99.90;;;;;;6279699;28;20032;-82
2021/05/31 02:27:19;;;;;;;5.45;4.57;;;8.40;99.90;;;;;;6319065;28;20035;-79
2021/05/31 02:30:21;;;;;;;7.10;4.78;;;8.70;99.90;;;;;;6292469;28;20032;-81
2021/05/31 02:33:25;;;;;;;5.78;4.05;;;8.10;99.90;;;;;;6302544;28;20106;-79
2021/05/31 02:36:26;;;;;;;7.45;4.72;;;8.40;99.90;;;;;;6320115;28;20028;-79
2021/05/31 02:39:26;;;;;;;6.35;4.75;;;8.40;99.90;;;;;;6320001;28;20119;-79
2021/05/31 02:42:27;;;;;;;6.40;4.90;;;;;;;;;;6318699;28;20039;-80
2021/05/31 02:45:29;;;;;;;7.13;4.28;;;;;;;;;;6320195;28;20416;-82
2021/05/31 02:48:30;;;;;;;7.70;4.50;;;;;;;;;;6318464;28;20170;-78
2021/05/31 02:51:31;;;;;;;7.20;5.03;;;;;;;;;;6300906;28;20024;-79
2021/05/31 02:54:32;;;;;;;5.25;4.25;;;8.10;99.90;;;;;;6302750;28;20069;-81
2021/05/31 02:57:32;;;;;;;5.18;4.68;;;8.10;99.90;;;;;;6259964;28;20024;-80
2021/05/31 03:00:33;;;;;;;9.02;5.63;;;7.80;99.90;;;;;;6293766;28;20111;-79
2021/05/31 03:03:34;;;;;;;7.65;5.03;;;8.10;99.90;;;;;;6281046;28;20115;-79
2021/05/31 03:06:34;;;;;;;6.15;4.75;;;8.00;99.90;;;;;;6301390;28;20028;-79
2021/05/31 03:09:35;;;;;;;7.53;5.90;;;;;;;;;;6319547;28;20032;-79
2021/05/31 03:12:36;;;;;;;7.15;4.75;;;7.90;99.90;;;;;;6318819;28;20489;-80
2021/05/31 03:15:37;;;;;;;6.18;5.25;;;7.80;99.90;;;;;;6275874;28;20035;-79
2021/05/31 03:18:37;;;;;;;5.63;4.30;;;8.30;98.60;;;;;;6276239;28;20043;-79
2021/05/31 03:21:38;;;;;;;4.57;4.10;;;8.00;99.90;;;;;;6276237;28;20094;-81
2021/05/31 03:24:38;;;;;;;7.43;4.85;;;7.80;99.90;;;;;;6276250;28;20540;-79
2021/05/31 03:27:40;;;;;;;6.25;4.40;;;7.90;98.90;;;;;;6292759;28;20025;-79
2021/05/31 03:30:41;;;;;;;5.55;4.50;;;8.00;98.70;;;;;;6298312;28;20028;-80
2021/05/31 03:33:41;;;;;;;5.32;4.72;;;7.80;99.00;;;;;;6276974;28;20033;-80
2021/05/31 03:36:42;;;;;;;6.95;4.80;;;7.70;99.50;;;;;;6280033;28;20542;-80
2021/05/31 03:39:42;;;;;;;6.45;4.40;;;8.90;99.90;;;;;;6317292;28;20383;-80
2021/05/31 03:42:43;;;;;;;5.57;4.68;;;7.60;99.90;;;;;;6306156;28;20044;-81
2021/05/31 03:45:44;;;;;;;6.72;5.13;;;8.30;99.20;;;;;;6317009;28;20036;-79
2021/05/31 03:48:45;;;;;;;8.18;4.60;;;8.10;99.20;;;;;;6317298;28;20024;-83
2021/05/31 03:51:46;;;;;;;9.18;7.65;;;8.10;98.60;;;;;;6299418;28;20032;-79
2021/05/31 03:54:47;;;;;;;4.95;4.30;;;8.10;99.00;;;;;;6276249;28;20094;-79
2021/05/31 03:57:47;;;;;;;6.20;4.80;;;8.40;98.70;;;;;;6276082;28;20036;-79
2021/05/31 04:00:48;;;;;;;6.00;4.35;;;7.60;99.90;;;;;;6294261;28;20050;-81
2021/05/31 04:03:49;;;;;;;7.90;4.22;;;8.50;99.00;;;;;;6293920;28;20352;-79
2021/05/31 04:13:09;;;;;;;8.02;4.40;;;8.50;99.90;;;;;;6292206;28;20040;-79
2021/05/31 04:16:09;;;;;;;7.93;4.70;;;8.90;97.80;;;;;;6275497;28;20047;-79
2021/05/31 04:19:11;;;;;;;6.70;4.95;;;9.00;97.10;;;;;;6293577;28;20493;-79
2021/05/31 04:22:11;;;;;;;9.00;4.90;;;9.30;95.70;;;;;;6266859;28;20032;-79
2021/05/31 04:25:12;;;;;;;9.23;4.75;;;9.90;95.50;;;;;;6316769;28;20024;-79
2021/05/31 04:28:13;;;;;;;6.80;4.75;;;;;;;;;;6282847;28;20043;-79
2021/05/31 04:31:14;;;;;;;5.43;4.38;;;10.20;99.90;;;;;;6287272;28;20059;-79
2021/05/31 04:34:15;;;;;;;7.78;4.47;;;;;;;;;;6286170;28;20032;-79
2021/05/31 04:37:16;;;;;;;6.35;4.10;;;10.80;92.40;;;;;;6316099;28;20030;-79
2021/05/31 04:40:16;;;;;;;6.25;4.45;;;10.90;99.70;;;;;;6299241;28;20410;-80
2021/05/31 04:43:17;;;;;;;5.35;4.38;;;10.80;93.30;;;;;;6315951;28;20039;-79
2021/05/31 04:46:18;;;;;;;7.25;4.75;;;11.20;92.60;;;;;;6316169;28;20046;-79
2021/05/31 04:49:18;;;;;;;5.63;4.40;;;11.50;91.90;;;;;;6299238;28;20028;-81
2021/05/31 04:52:21;;;;;;;6.65;4.30;;;11.60;91.90;;;;;;6316097;28;20026;-79
2021/05/31 04:55:22;;;;;;;5.68;4.65;;;11.90;91.10;;;;;;6316232;28;20020;-80
2021/05/31 04:58:23;;;;;;;7.43;4.85;;;12.10;91.40;;;;;;6297852;28;20079;-80
2021/05/31 05:01:23;;;;;;;10.23;4.70;;;12.40;97.20;;;;;;6274371;28;20045;-79
2021/05/31 05:04:24;;;;;;;5.72;4.20;;;12.60;91.60;;;;;;6279150;28;20527;-79
2021/05/31 05:07:25;;;;;;;5.90;4.80;;;12.70;90.50;;;;;;6275185;28;20480;-79
2021/05/31 05:10:25;;;;;;;6.75;4.38;;;12.90;90.50;;;;;;6283356;28;20024;-79
2021/05/31 05:13:26;;;;;;;6.65;4.45;;;13.20;89.60;;;;;;6318883;28;20039;-79
2021/05/31 05:16:27;;;;;;;7.22;4.35;;;13.50;90.00;;;;;;6304093;28;20055;-81
2021/05/31 05:19:28;;;;;;;5.93;4.32;;;13.80;89.40;;;;;;6304126;28;20527;-79
2021/05/31 05:22:28;;;;;;;6.60;5.15;;;14.00;86.50;;;;;;6321232;28;20130;-79
2021/05/31 05:25:30;;;;;;;6.85;4.00;;;14.20;87.30;;;;;;6304348;28;20040;-79
2021/05/31 05:28:32;;;;;;;4.57;3.70;;;14.60;84.10;;;;;;6322116;28;20031;-81
2021/05/31 05:31:33;;;;;;;5.43;4.07;;;15.30;91.20;;;;;;6303939;28;20034;-81
2021/05/31 05:34:33;;;;;;;4.72;3.83;;;16.10;92.80;;;;;;6295785;28;20029;-80
2021/05/31 05:37:41;;;;;;;6.35;3.97;;;16.00;95.80;;;;;;6295392;28;20040;-81
2021/05/31 05:50:03;;;;;;;5.78;3.78;;;17.00;79.30;;;;;;6314570;28;20028;-80
2021/05/31 05:53:04;;;;;;;5.60;3.70;;;17.40;64.80;;;;;;6270693;28;20485;-79
2021/05/31 05:56:11;;;;;;;6.70;4.07;;;18.20;64.20;;;;;;6320022;28;20031;-79
2021/05/31 05:59:12;;;;;;;5.75;4.10;;;18.70;78.90;;;;;;6280236;28;20033;-79
2021/05/31 06:02:12;;;;;;;5.47;3.90;;;18.70;63.10;;;;;;6295387;28;20078;-77
2021/05/31 06:05:13;;;;;;;9.48;4.45;;;19.00;62.00;;;;;;6296574;28;20119;-78
2021/05/31 06:08:14;;;;;;;7.40;4.45;;;19.80;62.60;;;;;;6295678;28;20028;-76
2021/05/31 06:11:15;;;;;;;6.85;4.22;;;20.10;57.90;;;;;;6296632;28;20081;-77
2021/05/31 06:14:16;;;;;;;6.18;3.88;;;;;;;;;;6294768;28;20179;-78
2021/05/31 06:17:16;;;;;;;5.20;3.97;;;20.70;56.40;;;;;;6296433;28;20386;-79
2021/05/31 06:20:17;;;;;;;8.13;3.70;;;21.00;54.50;;;;;;6285196;28;20033;-79
2021/05/31 06:23:17;;;;;;;6.20;4.00;;;21.50;51.10;;;;;;6319456;28;20032;-80
2021/05/31 06:26:18;;;;;;;5.75;3.90;;;22.00;53.20;;;;;;6301508;28;20863;-80
2021/05/31 06:29:18;;;;;;;4.45;3.70;;;22.70;47.50;;;;;;6318972;28;20032;-78
2021/05/31 06:32:19;;;;;;;6.00;3.40;;;23.20;44.60;;;;;;6295796;28;20028;-80
2021/05/31 06:35:21;;;;;;;12.02;4.25;;;23.50;44.00;;;;;;6294292;28;20036;-80
2021/05/31 06:38:21;;;;;;;4.25;3.47;;;23.90;48.30;;;;;;6277949;28;20028;-79
2021/05/31 06:41:22;;;;;;;5.18;3.30;;;;;;;;;;6280848;28;20056;-83
2021/05/31 06:44:23;;;;;;;4.70;3.20;;;23.80;37.20;;;;;;6301792;28;20020;-84
2021/05/31 06:47:23;;;;;;;4.00;2.95;;;23.90;38.40;;;;;;6299961;28;20412;-80
2021/05/31 06:50:25;;;;;;;4.97;3.22;;;22.60;39.20;;;;;;6309754;28;20043;-81
2021/05/31 06:53:26;;;;;;;4.72;3.58;;;22.10;39.80;;;;;;6267994;28;20028;-82
2021/05/31 06:56:26;;;;;;;4.88;3.20;;;22.00;42.30;;;;;;6246817;28;20132;-83
2021/05/31 06:59:27;;;;;;;3.13;2.83;;;22.70;41.10;;;;;;6257833;28;20391;-83
2021/05/31 07:02:28;;;;;;;5.57;3.40;;;22.90;41.60;;;;;;6277024;28;20045;-83
2021/05/31 07:05:28;;;;;;;5.00;3.20;;;23.00;41.30;;;;;;6256894;28;20462;-81
2021/05/31 07:08:30;;;;;;;4.63;3.10;;;23.20;39.40;;;;;;6275681;28;20085;-80
2021/05/31 07:11:31;;;;;;;5.60;3.10;;;22.90;39.40;;;;;;6270800;28;20092;-82
2021/05/31 07:14:37;;;;;;;3.92;2.88;;;23.20;40.90;;;;;;6275693;28;20034;-80
2021/05/31 07:17:38;;;;;;;3.50;3.05;;;23.40;39.10;;;;;;6295749;28;20409;-83
2021/05/31 07:20:39;;;;;;;4.00;3.15;;;23.50;40.50;;;;;;6249698;28;20032;-82
2021/05/31 07:23:40;;;;;;;4.93;3.10;;;23.50;40.40;;;;;;6264927;28;20035;-81
2021/05/31 07:26:40;;;;;;;4.40;3.50;;;22.90;39.30;;;;;;6296121;28;20073;-81
2021/05/31 07:29:41;;;;;;;4.95;3.10;;;22.60;40.60;;;;;;6294735;28;20024;-83
2021/05/31 07:32:42;;;;;;;4.75;2.90;;;22.50;42.20;;;;;;6272200;28;20016;-87
2021/05/31 07:35:43;;;;;;;6.20;3.00;;;22.00;56.80;;;;;;6277282;28;20433;-85
2021/05/31 07:38:43;;;;;;;4.13;3.10;;;22.40;55.90;;;;;;6301301;28;20611;-85
2021/05/31 07:41:44;;;;;;;5.10;3.00;;;22.40;53.20;;;;;;6248801;28;20071;-84
2021/05/31 07:44:45;;;;;;;3.38;2.80;;;22.30;41.10;;;;;;6278415;28;20028;-82
2021/05/31 07:47:47;;;;;;;7.20;3.20;;;22.10;41.10;;;;;;6292252;28;20470;-81
2021/05/31 07:50:48;;;;;;;5.93;3.03;;;22.20;40.40;;;;;;6285937;28;20039;-85
2021/05/31 07:53:53;;;;;;;4.10;2.90;;;22.50;41.10;;;;;;6273115;28;20024;-83
2021/05/31 07:56:54;;;;;;;4.25;3.00;;;22.40;39.60;;;;;;6283171;28;20028;-84
2021/05/31 07:59:55;;;;;;;4.88;3.20;;;23.30;54.30;;;;;;6270233;28;20067;-85
2021/05/31 08:02:56;;;;;;;3.65;3.03;;;23.30;37.70;;;;;;6265414;28;20105;-82
2021/05/31 08:06:00;;;;;;;6.93;2.92;;;23.40;39.60;;;;;;6272445;28;20071;-83
2021/05/31 08:09:01;;;;;;;4.22;2.90;;;23.10;40.90;;;;;;6260550;28;20025;-86
2021/05/31 08:12:08;;;;;;;6.00;3.15;;;23.50;38.70;;;;;;6269832;28;20473;-86
2021/05/31 08:15:12;;;;;;;4.40;2.92;;;23.50;36.10;;;;;;6265444;28;20090;-86
2021/05/31 08:18:18;;;;;;;5.82;3.22;;;24.30;38.90;;;;;;6250977;28;20035;-84
2021/05/31 08:21:19;;;;;;;7.35;3.10;;;;;;;;;;6286952;28;20544;-84
2021/05/31 08:24:20;;;;;;;3.38;2.80;;;23.80;52.10;;;;;;6274106;28;20026;-84
2021/05/31 08:27:20;;;;;;;4.05;2.80;;;23.80;38.30;;;;;;6278716;28;20360;-84
2021/05/31 08:30:22;;;;;;;4.15;3.15;;;24.20;37.00;;;;;;6255872;28;20451;-82
2021/05/31 08:33:22;;;;;;;7.47;3.20;;;25.00;37.10;;;;;;6275286;28;20031;-85
2021/05/31 08:36:23;;;;;;;4.03;2.80;;;25.60;38.60;;;;;;6284693;28;20028;-85
2021/05/31 08:39:28;;;;;;;7.28;2.83;;;25.60;37.70;;;;;;6286881;28;20096;-86
2021/05/31 08:42:38;;;;;;;5.28;3.38;;;26.10;38.10;;;;;;6274211;28;20131;-88
2021/05/31 08:45:41;;;;;;;4.03;2.97;;;;;;;;;;6273326;28;20784;-86
2021/05/31 08:48:42;;;;;;;5.15;2.90;;;25.30;33.10;;;;;;6269714;28;20024;-85
2021/05/31 08:51:42;;;;;;;4.30;3.57;;;27.10;38.50;;;;;;6249724;28;20086;-82
2021/05/31 08:54:43;;;;;;;5.60;2.83;;;25.80;52.30;;;;;;6286571;28;20122;-82
2021/05/31 08:57:44;;;;;;;3.37;2.93;;;;;;;;;;6290297;28;20035;-82
2021/05/31 09:00:45;;;;;;;4.60;2.77;;;26.10;34.20;;;;;;6261656;28;20040;-85
2021/05/31 09:03:45;;;;;;;3.53;2.90;;;26.40;36.70;;;;;;6263686;28;20056;-84
2021/05/31 09:07:00;;;;;;;8.93;3.13;;;26.90;66.90;;;;;;6270777;28;20522;-84
2021/05/31 09:10:01;;;;;;;8.75;3.47;;;27.10;67.60;;;;;;6285254;28;20124;-82
2021/05/31 09:13:03;;;;;;;3.43;2.90;;;;;;;;;;6262614;28;20416;-86
2021/05/31 09:16:06;;;;;;;;;;;26.60;45.80;;;;;;6271414;28;20028;-82
2021/05/31 09:19:07;;;;;;;5.90;3.15;;;26.90;63.60;;;;;;6315341;28;19947;-83
2021/05/31 09:22:08;;;;;;;3.37;2.77;;;26.70;45.20;;;;;;6274314;28;20047;-84
2021/05/31 09:25:10;;;;;;;4.20;2.90;;;26.80;47.30;;;;;;6262356;28;20024;-81
2021/05/31 09:28:11;;;;;;;;;;;26.80;35.00;;;;;;6263355;28;20513;-82
2021/05/31 09:31:13;;;;;;;9.82;3.35;;;27.30;34.20;;;;;;6300899;28;19908;-83
2021/05/31 09:34:15;;;;;;;4.53;2.90;;;27.30;35.10;;;;;;6272931;28;20056;-84
2021/05/31 09:37:19;;;;;;;5.32;2.92;;;27.40;34.20;;;;;;6298789;28;20016;-85
2021/05/31 09:40:22;;;;;;;4.63;3.00;;;27.90;34.00;;;;;;6281989;28;20052;-85
2021/05/31 09:43:26;;;;;;;8.02;3.33;;;27.80;33.10;;;;;;6273667;28;20127;-84
2021/05/31 09:46:46;;;;;;;4.75;2.88;;;28.10;31.90;;;;;;6283326;28;20036;-84
2021/05/31 09:49:46;;;;;;;4.95;3.13;;;28.40;31.90;;;;;;6273290;28;20032;-83
2021/05/31 09:52:47;;;;;;;5.47;3.00;;;28.70;33.50;;;;;;6281850;28;20108;-83
2021/05/31 09:55:49;;;;;;;3.67;2.87;;;;;;;;;;6281727;28;20020;-83
2021/05/31 09:59:01;;;;;;;3.80;2.58;;;28.50;30.90;;;;;;6265834;28;20024;-83
2021/05/31 10:02:04;;;;;;;3.72;3.33;;;28.30;31.60;;;;;;6283679;28;20033;-83
2021/05/31 10:11:11;;;;;;;3.97;3.00;;;29.20;32.40;;;;;;6288943;28;20063;-83
2021/05/31 10:14:15;;;;;;;7.75;2.97;;;29.40;34.70;;;;;;6277990;28;20039;-83
2021/05/31 10:17:16;;;;;;;3.25;2.92;;;29.30;32.70;;;;;;6276433;28;20048;-82
2021/05/31 10:20:16;;;;;;;3.63;3.27;;;29.40;33.00;;;;;;6280864;28;20409;-85
2021/05/31 10:23:17;;;;;;;4.00;2.93;;;29.40;32.50;;;;;;6264836;28;20032;-82
2021/05/31 10:26:20;;;;;;;5.10;2.53;;;29.10;32.70;;;;;;6290547;28;20416;-82
2021/05/31 10:29:20;;;;;;;5.53;2.85;;;29.70;33.50;;;;;;6261301;28;20024;-82
2021/05/31 10:32:21;;;;;;;3.73;3.13;;;29.70;33.80;;;;;;6258885;28;20040;-82
2021/05/31 10:35:23;;;;;;;3.73;3.20;;;29.10;32.10;;;;;;6277722;28;20070;-82
2021/05/31 10:38:27;;;;;;;3.70;3.17;;;29.20;32.60;;;;;;6277317;28;20263;-81
2021/05/31 10:41:29;;;;;;;5.80;3.00;;;29.20;33.20;;;;;;6260440;28;20056;-81
2021/05/31 10:44:30;;;;;;;4.13;3.05;;;29.70;34.10;;;;;;6276965;28;20475;-81
2021/05/31 10:47:31;;;;;;;6.00;3.72;;;30.10;33.80;;;;;;6277285;28;20107;-82
2021/05/31 10:50:52;;;;;;;8.17;3.53;;;30.50;34.30;;;;;;6281475;28;20080;-82
2021/05/31 10:53:53;;;;;;;3.00;2.63;;;30.20;32.60;;;;;;6291115;28;20386;-83
2021/05/31 10:57:04;;;;;;;5.30;3.65;;;30.30;32.70;;;;;;6260176;28;20074;-86
2021/05/31 11:00:05;;;;;;;4.07;2.90;;;29.90;30.60;;;;;;6277225;28;20079;-82
2021/05/31 11:03:11;;;;;;;4.63;2.90;;;27.40;29.90;;;;;;6276998;28;20068;-83
2021/05/31 11:06:13;;;;;;;3.85;2.88;;;29.40;32.50;;;;;;6275091;28;20024;-81
2021/05/31 11:09:15;;;;;;;5.68;2.90;;;29.40;39.30;;;;;;6268133;28;20043;-87
2021/05/31 11:12:15;;;;;;;5.72;2.90;;;28.70;44.60;;;;;;6267416;28;20028;-85
2021/05/31 11:15:19;;;;;;;5.80;3.03;;;;;;;;;;6250139;28;20114;-87
2021/05/31 11:18:32;;;;;;;3.72;3.05;;;28.90;34.00;;;;;;6282003;28;20274;-87
2021/05/31 11:21:39;;;;;;;4.03;2.85;;;28.80;46.00;;;;;;6247892;28;20215;-86
2021/05/31 11:24:40;;;;;;;3.10;2.80;;;;;;;;;;6264267;28;20109;-85
2021/05/31 11:27:42;;;;;;;5.47;2.58;;;28.60;44.20;;;;;;6283555;28;20093;-85
2021/05/31 11:30:42;;;;;;;5.63;2.90;;;28.60;50.00;;;;;;6270029;28;20047;-85
2021/05/31 11:33:43;;;;;;;4.80;2.60;;;28.70;37.90;;;;;;6300604;28;20035;-84
2021/05/31 11:36:44;;;;;;;6.03;3.00;;;28.60;38.40;;;;;;6285246;28;20052;-84
2021/05/31 11:39:44;;;;;;;4.33;2.70;;;28.70;38.60;;;;;;6267446;28;20060;-86
2021/05/31 11:42:53;;;;;;;4.03;2.80;;;28.30;32.00;;;;;;6275029;28;20036;-85
2021/05/31 11:45:53;;;;;;;4.70;2.75;;;29.90;33.20;;;;;;6275909;28;20358;-85
2021/05/31 11:48:54;;;;;;;4.30;3.00;;;27.80;36.30;;;;;;6282252;28;20035;-86
2021/05/31 11:52:05;;;;;;;3.47;2.80;;;27.80;47.50;;;;;;6279906;28;20039;-87
2021/05/31 11:55:06;;;;;;;3.10;2.80;;;27.70;32.90;;;;;;6295917;28;20024;-88
2021/05/31 11:58:19;;;;;;;3.45;2.72;;;27.50;34.80;;;;;;6257150;28;20462;-86
2021/05/31 12:01:23;;;;;;;3.38;2.80;;;27.20;38.80;;;;;;6265866;28;20044;-86
2021/05/31 12:04:25;;;;;;;4.95;3.10;;;27.20;41.50;;;;;;6293844;28;20043;-83
2021/05/31 12:07:26;;;;;;;4.63;3.28;;;27.10;40.00;;;;;;6280399;28;20470;-84
2021/05/31 12:10:36;;;;;;;3.40;2.87;;;27.00;39.00;;;;;;6284567;28;20051;-84
2021/05/31 12:13:37;;;;;;;4.93;3.10;;;26.90;41.40;;;;;;6272794;28;20083;-84
2021/05/31 12:16:38;;;;;;;5.78;3.42;;;27.00;43.10;;;;;;6301367;28;20040;-85
2021/05/31 12:19:39;;;;;;;4.63;2.90;;;26.80;41.70;;;;;;6282738;28;20036;-82
2021/05/31 12:22:39;;;;;;;5.40;3.15;;;26.80;42.10;;;;;;6285464;28;20098;-83
2021/05/31 12:25:40;;;;;;;4.37;2.97;;;26.60;40.20;;;;;;6282926;28;20073;-84
2021/05/31 12:28:41;;;;;;;4.23;3.00;;;26.50;55.20;;;;;;6254252;28;20078;-85
2021/05/31 12:31:42;;;;;;;7.57;3.10;;;28.30;42.80;;;;;;6275282;28;20063;-77
2021/05/31 12:34:43;;;;;;;4.57;2.80;;;26.60;41.10;;;;;;6267784;28;20051;-79
2021/05/31 12:37:47;;;;;;;8.30;3.13;;;26.20;38.40;;;;;;6298847;28;20036;-83
2021/05/31 12:40:51;;;;;;;5.15;2.65;;;26.80;39.20;;;;;;6263887;28;20088;-81
2021/05/31 12:44:03;;;;;;;3.65;2.50;;;26.80;37.80;;;;;;6297133;28;20059;-78
2021/05/31 12:47:11;;;;;;;4.30;2.80;;;26.70;34.00;;;;;;6297429;28;20036;-79
2021/05/31 12:50:14;;;;;;;6.78;2.97;;;26.50;39.10;;;;;;6281638;28;20025;-76
2021/05/31 12:53:14;;;;;;;4.45;3.13;;;26.40;43.20;;;;;;6250295;28;20046;-77
2021/05/31 12:56:15;;;;;;;4.50;2.87;;;26.40;68.20;;;;;;6259304;28;20028;-82
2021/05/31 12:59:16;;;;;;;5.13;2.90;;;26.50;42.70;;;;;;6246542;28;20021;-80
2021/05/31 13:02:17;;;;;;;4.43;3.30;;;26.60;41.80;;;;;;6262955;28;20106;-78
2021/05/31 13:05:20;;;;;;;;;;;26.60;44.40;;;;;;6276778;28;20052;-77
2021/05/31 13:08:21;;;;;;;5.28;3.40;;;26.70;39.10;;;;;;6305089;28;19912;-77
2021/05/31 13:11:21;;;;;;;5.20;2.90;;;26.70;44.20;;;;;;6298059;28;20032;-79
2021/05/31 13:14:23;;;;;;;4.10;2.80;;;26.70;43.30;;;;;;6268223;28;20029;-76
2021/05/31 13:17:29;;;;;;;5.15;3.17;;;26.80;42.60;;;;;;6294060;28;20032;-76
2021/05/31 13:20:31;;;;;;;5.63;3.05;;;26.60;42.50;;;;;;6276955;28;20024;-77
2021/05/31 13:23:36;;;;;;;4.90;2.78;;;26.60;42.00;;;;;;6294902;28;20036;-76
2021/05/31 13:26:36;;;;;;;3.13;2.70;;;26.60;43.40;;;;;;6284485;28;20036;-79
2021/05/31 13:29:37;;;;;;;4.93;2.97;;;26.50;43.90;;;;;;6259791;28;20031;-79
2021/05/31 13:32:38;;;;;;;4.83;2.60;;;26.50;43.30;;;;;;6281254;28;20086;-80
2021/05/31 13:35:40;;;;;;;2.63;2.40;;;26.50;41.50;;;;;;6308720;28;20689;-80
2021/05/31 13:38:41;;;;;;;3.33;2.83;;;26.50;40.60;;;;;;6289347;28;20036;-80
2021/05/31 13:41:48;;;;;;;5.10;3.33;;;26.60;42.70;;;;;;6296744;28;20052;-79
2021/05/31 13:44:49;;;;;;;5.32;3.10;;;26.70;44.30;;;;;;6303006;28;20538;-79
2021/05/31 13:47:50;;;;;;;5.30;3.40;;;26.70;44.20;;;;;;6297493;28;20033;-80
2021/05/31 13:50:52;;;;;;;5.50;3.60;;;26.60;44.90;;;;;;6290744;28;20545;-81
2021/05/31 13:53:53;;;;;;;6.25;3.42;;;26.60;43.20;;;;;;6294260;28;20031;-79
2021/05/31 13:56:53;;;;;;;17.57;3.77;;;26.60;42.90;;;;;;6280093;28;20028;-78
2021/05/31 13:59:54;;;;;;;13.23;4.17;;;26.40;40.30;;;;;;6304424;28;20041;-78
2021/05/31 14:02:56;;;;;;;7.47;3.37;;;26.40;41.10;;;;;;6307221;28;20052;-79
2021/05/31 14:05:57;;;;;;;9.82;3.85;;;26.30;42.30;;;;;;6302284;28;20039;-80
2021/05/31 14:09:00;;;;;;;3.97;2.90;;;26.00;44.30;;;;;;6315880;28;20046;-79
2021/05/31 14:12:00;;;;;;;5.40;3.20;;;26.30;45.80;;;;;;6317044;28;20359;-80
2021/05/31 14:15:01;;;;;;;6.70;3.50;;;26.20;44.40;;;;;;6319416;28;20051;-78
2021/05/31 14:18:02;;;;;;;5.23;3.10;;;26.10;43.80;;;;;;6296418;28;20036;-78
2021/05/31 14:21:02;;;;;;;5.00;3.10;;;26.00;42.70;;;;;;6294967;28;20078;-79
2021/05/31 14:24:03;;;;;;;6.30;3.30;;;26.10;44.90;;;;;;6293603;28;20478;-79
2021/05/31 14:27:07;;;;;;;3.83;3.00;;;26.00;44.70;;;;;;6282924;28;20035;-79
2021/05/31 14:30:09;;;;;;;6.22;3.10;;;26.00;44.90;;;;;;6284123;28;20075;-79
2021/05/31 14:33:09;;;;;;;3.72;2.72;;;26.20;44.10;;;;;;6296080;28;20029;-78
2021/05/31 14:36:10;;;;;;;4.40;3.27;;;26.10;41.90;;;;;;6277090;28;20033;-80
2021/05/31 14:39:11;;;;;;;4.63;3.20;;;26.20;43.60;;;;;;6308237;28;20024;-79
2021/05/31 14:42:12;;;;;;;4.87;3.03;;;26.10;45.40;;;;;;6319973;28;20043;-78
2021/05/31 14:45:12;;;;;;;5.00;3.50;;;26.10;45.00;;;;;;6278954;28;20028;-79
2021/05/31 14:48:13;;;;;;;4.10;3.20;;;25.80;71.60;;;;;;6295520;28;20429;-80
2021/05/31 14:51:14;;;;;;;5.80;3.20;;;26.00;46.10;;;;;;6295396;28;20081;-80
2021/05/31 14:54:15;;;;;;;6.60;3.07;;;25.90;47.30;;;;;;6295401;28;20028;-79
2021/05/31 14:57:16;;;;;;;4.40;3.23;;;;;;;;;;6295553;28;20062;-78
2021/05/31 15:00:19;;;;;;;7.70;3.40;;;25.90;71.40;;;;;;6291814;28;20372;-79
2021/05/31 15:03:19;;;;;;;6.32;3.30;;;25.80;55.30;;;;;;6294693;28;20125;-80
2021/05/31 15:06:22;;;;;;;5.40;3.50;;;25.80;58.00;;;;;;6289867;28;20421;-80
2021/05/31 15:09:22;;;;;;;4.55;3.20;;;25.50;56.60;;;;;;6317602;28;20078;-79
2021/05/31 15:12:23;;;;;;;11.43;4.17;;;25.70;57.80;;;;;;6306421;28;20040;-79
2021/05/31 15:15:24;;;;;;;9.23;3.60;;;25.40;57.00;;;;;;6286261;28;20028;-80
2021/05/31 15:18:24;;;;;;;7.30;3.30;;;25.50;57.60;;;;;;6303725;28;20039;-80
2021/05/31 15:21:26;;;;;;;6.87;3.40;;;25.20;48.70;;;;;;6306494;28;20124;-83
2021/05/31 15:24:26;;;;;;;8.05;4.05;;;25.10;46.40;;;;;;6281159;28;20524;-82
2021/05/31 15:27:27;;;;;;;6.33;3.20;;;25.10;47.20;;;;;;6270851;28;20032;-83
2021/05/31 15:30:28;;;;;;;10.33;3.33;;;25.00;45.90;;;;;;6287309;28;20017;-82
2021/05/31 15:33:28;;;;;;;4.97;3.20;;;24.90;47.50;;;;;;6270294;28;20577;-83
2021/05/31 15:36:29;;;;;;;3.70;3.40;;;24.40;47.50;;;;;;6285796;28;20024;-81
2021/05/31 15:39:29;;;;;;;3.77;3.13;;;24.80;47.70;;;;;;6252710;28;20144;-82
2021/05/31 15:42:30;;;;;;;4.87;3.77;;;24.90;46.80;;;;;;6277463;28;20058;-80
2021/05/31 15:45:32;;;;;;;9.23;3.70;;;24.90;49.40;;;;;;6260032;28;20032;-82
2021/05/31 15:48:32;;;;;;;;;;;24.70;47.40;;;;;;6276141;28;20029;-81
2021/05/31 15:51:33;;;;;;;5.15;3.60;;;24.60;48.10;;;;;;6293073;28;20005;-79
2021/05/31 15:54:34;;;;;;;9.90;3.47;;;24.40;46.90;;;;;;6294609;28;20039;-79
2021/05/31 15:57:35;;;;;;;5.93;3.30;;;24.30;47.30;;;;;;6291427;28;20039;-78
2021/05/31 16:00:36;;;;;;;6.87;3.50;;;24.20;47.90;;;;;;6282692;28;20104;-78
2021/05/31 16:03:36;;;;;;;6.00;3.53;;;24.20;48.20;;;;;;6317014;28;20024;-78
2021/05/31 16:06:37;;;;;;;6.07;3.63;;;24.10;47.20;;;;;;6318352;28;20020;-79
2021/05/31 16:09:37;;;;;;;4.23;2.97;;;23.90;48.30;;;;;;6317444;28;20032;-77
2021/05/31 16:12:40;;;;;;;6.40;3.92;;;23.90;48.00;;;;;;6306057;28;20082;-80
2021/05/31 16:15:41;;;;;;;4.72;3.17;;;23.90;49.00;;;;;;6269046;28;20394;-79
2021/05/31 16:18:41;;;;;;;9.33;3.30;;;24.00;48.60;;;;;;6260280;28;20028;-78
2021/05/31 16:21:42;;;;;;;5.00;3.40;;;23.90;48.30;;;;;;6294371;28;20072;-79